sensor_id;sensor_type;location;lat;lon;timestamp;P1;durP1;ratioP1;P2;durP2;ratioP2
11453;SDS011;5783;55.174;61.310;2023-02-13T00:02:30;7.20;;;6.10;;
11453;SDS011;5783;55.174;61.310;2023-02-13T00:04:59;8.80;;;6.50;;
11453;SDS011;5783;55.174;61.310;2023-02-13T00:07:30;8.07;;;6.10;;
11453;SDS011;5783;55.174;61.310;2023-02-13T00:09:59;6.80;;;5.80;;
11453;SDS011;5783;55.174;61.310;2023-02-13T00:12:30;7.20;;;5.73;;
11453;SDS011;5783;55.174;61.310;2023-02-13T00:14:59;7.90;;;6.10;;
11453;SDS011;5783;55.174;61.310;2023-02-13T00:17:28;7.57;;;5.77;;
11453;SDS011;5783;55.174;61.310;2023-02-13T00:19:58;6.80;;;5.60;;
11453;SDS011;5783;55.174;61.310;2023-02-13T00:22:27;7.07;;;5.70;;
11453;SDS011;5783;55.174;61.310;2023-02-13T00:24:56;6.97;;;5.83;;
11453;SDS011;5783;55.174;61.310;2023-02-13T00:27:25;6.57;;;5.33;;
11453;SDS011;5783;55.174;61.310;2023-02-13T00:29:54;6.73;;;5.63;;
11453;SDS011;5783;55.174;61.310;2023-02-13T00:32:23;6.60;;;5.53;;
11453;SDS011;5783;55.174;61.310;2023-02-13T00:34:52;6.17;;;5.40;;
11453;SDS011;5783;55.174;61.310;2023-02-13T00:37:22;7.53;;;5.97;;
11453;SDS011;5783;55.174;61.310;2023-02-13T00:39:51;7.90;;;5.70;;
11453;SDS011;5783;55.174;61.310;2023-02-13T00:42:21;8.10;;;5.90;;
11453;SDS011;5783;55.174;61.310;2023-02-13T00:44:51;7.03;;;5.70;;
11453;SDS011;5783;55.174;61.310;2023-02-13T00:47:21;7.50;;;5.67;;
11453;SDS011;5783;55.174;61.310;2023-02-13T00:49:50;7.87;;;5.77;;
11453;SDS011;5783;55.174;61.310;2023-02-13T00:52:19;6.33;;;5.43;;
11453;SDS011;5783;55.174;61.310;2023-02-13T00:54:48;7.53;;;5.97;;
11453;SDS011;5783;55.174;61.310;2023-02-13T00:57:17;7.37;;;5.97;;
11453;SDS011;5783;55.174;61.310;2023-02-13T00:59:46;7.50;;;5.63;;
11453;SDS011;5783;55.174;61.310;2023-02-13T01:02:16;5.70;;;5.10;;
11453;SDS011;5783;55.174;61.310;2023-02-13T01:04:45;8.33;;;5.90;;
11453;SDS011;5783;55.174;61.310;2023-02-13T01:07:14;6.47;;;5.73;;
11453;SDS011;5783;55.174;61.310;2023-02-13T01:09:43;6.83;;;6.10;;
11453;SDS011;5783;55.174;61.310;2023-02-13T01:12:12;6.47;;;5.47;;
11453;SDS011;5783;55.174;61.310;2023-02-13T01:14:41;6.33;;;5.50;;
11453;SDS011;5783;55.174;61.310;2023-02-13T01:17:11;7.97;;;6.00;;
11453;SDS011;5783;55.174;61.310;2023-02-13T01:19:40;8.53;;;5.87;;
11453;SDS011;5783;55.174;61.310;2023-02-13T01:22:09;7.37;;;5.73;;
11453;SDS011;5783;55.174;61.310;2023-02-13T01:24:38;6.53;;;5.10;;
11453;SDS011;5783;55.174;61.310;2023-02-13T01:27:07;6.43;;;5.40;;
11453;SDS011;5783;55.174;61.310;2023-02-13T01:29:36;6.10;;;5.47;;
11453;SDS011;5783;55.174;61.310;2023-02-13T01:32:05;6.77;;;5.50;;
11453;SDS011;5783;55.174;61.310;2023-02-13T01:34:35;6.47;;;5.47;;
11453;SDS011;5783;55.174;61.310;2023-02-13T01:37:04;7.33;;;5.80;;
11453;SDS011;5783;55.174;61.310;2023-02-13T01:39:33;7.77;;;6.03;;
11453;SDS011;5783;55.174;61.310;2023-02-13T01:42:02;6.70;;;5.77;;
11453;SDS011;5783;55.174;61.310;2023-02-13T01:59:03;8.13;;;5.80;;
11453;SDS011;5783;55.174;61.310;2023-02-13T02:01:33;8.17;;;5.87;;
11453;SDS011;5783;55.174;61.310;2023-02-13T02:04:06;6.97;;;5.60;;
11453;SDS011;5783;55.174;61.310;2023-02-13T02:06:55;6.83;;;5.40;;
11453;SDS011;5783;55.174;61.310;2023-02-13T02:09:27;6.40;;;5.40;;
11453;SDS011;5783;55.174;61.310;2023-02-13T02:12:00;6.50;;;5.03;;
11453;SDS011;5783;55.174;61.310;2023-02-13T02:14:30;9.27;;;5.97;;
11453;SDS011;5783;55.174;61.310;2023-02-13T02:17:00;7.37;;;6.00;;
11453;SDS011;5783;55.174;61.310;2023-02-13T02:46:20;8.90;;;5.93;;
11453;SDS011;5783;55.174;61.310;2023-02-13T02:49:11;8.00;;;5.63;;
11453;SDS011;5783;55.174;61.310;2023-02-13T02:54:52;9.07;;;5.73;;
11453;SDS011;5783;55.174;61.310;2023-02-13T02:57:42;8.53;;;5.80;;
11453;SDS011;5783;55.174;61.310;2023-02-13T03:00:32;6.93;;;5.67;;
11453;SDS011;5783;55.174;61.310;2023-02-13T03:03:23;6.33;;;5.63;;
11453;SDS011;5783;55.174;61.310;2023-02-13T03:09:23;7.37;;;6.13;;
11453;SDS011;5783;55.174;61.310;2023-02-13T03:15:42;7.90;;;6.07;;
11453;SDS011;5783;55.174;61.310;2023-02-13T03:24:57;8.97;;;6.63;;
11453;SDS011;5783;55.174;61.310;2023-02-13T03:31:33;7.97;;;6.23;;
11453;SDS011;5783;55.174;61.310;2023-02-13T03:34:22;7.63;;;6.27;;
11453;SDS011;5783;55.174;61.310;2023-02-13T03:36:58;8.00;;;6.40;;
11453;SDS011;5783;55.174;61.310;2023-02-13T03:40:06;7.60;;;6.23;;
11453;SDS011;5783;55.174;61.310;2023-02-13T03:51:12;7.30;;;6.10;;
11453;SDS011;5783;55.174;61.310;2023-02-13T03:54:03;8.87;;;6.93;;
11453;SDS011;5783;55.174;61.310;2023-02-13T03:56:33;6.27;;;5.63;;
11453;SDS011;5783;55.174;61.310;2023-02-13T04:02:16;7.57;;;6.23;;
11453;SDS011;5783;55.174;61.310;2023-02-13T04:07:38;8.73;;;5.90;;
11453;SDS011;5783;55.174;61.310;2023-02-13T04:10:08;7.20;;;6.10;;
11453;SDS011;5783;55.174;61.310;2023-02-13T04:15:32;6.33;;;5.70;;
11453;SDS011;5783;55.174;61.310;2023-02-13T04:20:52;8.00;;;6.10;;
11453;SDS011;5783;55.174;61.310;2023-02-13T04:23:21;7.37;;;5.70;;
11453;SDS011;5783;55.174;61.310;2023-02-13T04:25:51;6.80;;;5.77;;
11453;SDS011;5783;55.174;61.310;2023-02-13T04:28:23;6.63;;;5.80;;
11453;SDS011;5783;55.174;61.310;2023-02-13T04:30:52;7.43;;;6.40;;
11453;SDS011;5783;55.174;61.310;2023-02-13T04:33:22;8.53;;;5.90;;
11453;SDS011;5783;55.174;61.310;2023-02-13T04:35:51;7.17;;;5.93;;
11453;SDS011;5783;55.174;61.310;2023-02-13T04:38:21;6.33;;;5.33;;
11453;SDS011;5783;55.174;61.310;2023-02-13T04:40:50;5.87;;;5.27;;
11453;SDS011;5783;55.174;61.310;2023-02-13T04:43:19;6.83;;;5.50;;
11453;SDS011;5783;55.174;61.310;2023-02-13T04:45:50;6.20;;;5.60;;
11453;SDS011;5783;55.174;61.310;2023-02-13T04:48:19;5.77;;;4.80;;
11453;SDS011;5783;55.174;61.310;2023-02-13T04:50:49;7.23;;;5.90;;
11453;SDS011;5783;55.174;61.310;2023-02-13T04:53:18;7.60;;;5.90;;
11453;SDS011;5783;55.174;61.310;2023-02-13T04:55:47;8.77;;;5.57;;
11453;SDS011;5783;55.174;61.310;2023-02-13T04:58:16;6.97;;;5.40;;
11453;SDS011;5783;55.174;61.310;2023-02-13T05:00:45;7.37;;;6.00;;
11453;SDS011;5783;55.174;61.310;2023-02-13T05:03:14;7.87;;;6.20;;
11453;SDS011;5783;55.174;61.310;2023-02-13T05:05:46;8.43;;;5.63;;
11453;SDS011;5783;55.174;61.310;2023-02-13T05:08:15;7.07;;;5.77;;
11453;SDS011;5783;55.174;61.310;2023-02-13T05:10:44;6.63;;;5.87;;
11453;SDS011;5783;55.174;61.310;2023-02-13T05:13:14;6.63;;;5.90;;
11453;SDS011;5783;55.174;61.310;2023-02-13T05:15:44;8.17;;;5.87;;
11453;SDS011;5783;55.174;61.310;2023-02-13T05:18:18;8.80;;;6.10;;
11453;SDS011;5783;55.174;61.310;2023-02-13T05:20:47;7.80;;;6.07;;
11453;SDS011;5783;55.174;61.310;2023-02-13T05:23:18;8.00;;;6.00;;
11453;SDS011;5783;55.174;61.310;2023-02-13T05:26:07;9.90;;;6.33;;
11453;SDS011;5783;55.174;61.310;2023-02-13T05:28:36;6.50;;;5.60;;
11453;SDS011;5783;55.174;61.310;2023-02-13T05:31:24;8.17;;;6.00;;
11453;SDS011;5783;55.174;61.310;2023-02-13T05:33:54;8.53;;;5.87;;
11453;SDS011;5783;55.174;61.310;2023-02-13T05:36:23;10.63;;;6.80;;
11453;SDS011;5783;55.174;61.310;2023-02-13T05:38:52;7.70;;;5.80;;
11453;SDS011;5783;55.174;61.310;2023-02-13T05:41:21;7.80;;;5.30;;
11453;SDS011;5783;55.174;61.310;2023-02-13T05:43:50;9.53;;;6.33;;
11453;SDS011;5783;55.174;61.310;2023-02-13T05:46:19;7.30;;;6.10;;
11453;SDS011;5783;55.174;61.310;2023-02-13T05:48:48;7.17;;;5.63;;
11453;SDS011;5783;55.174;61.310;2023-02-13T05:51:18;8.43;;;5.63;;
11453;SDS011;5783;55.174;61.310;2023-02-13T05:53:48;7.57;;;6.17;;
11453;SDS011;5783;55.174;61.310;2023-02-13T05:56:17;6.47;;;5.40;;
11453;SDS011;5783;55.174;61.310;2023-02-13T05:58:46;7.07;;;5.80;;
11453;SDS011;5783;55.174;61.310;2023-02-13T06:01:16;6.87;;;5.27;;
11453;SDS011;5783;55.174;61.310;2023-02-13T06:03:46;7.07;;;5.70;;
11453;SDS011;5783;55.174;61.310;2023-02-13T06:06:15;7.60;;;5.80;;
11453;SDS011;5783;55.174;61.310;2023-02-13T06:08:46;8.87;;;6.03;;
11453;SDS011;5783;55.174;61.310;2023-02-13T06:11:15;6.43;;;5.10;;
11453;SDS011;5783;55.174;61.310;2023-02-13T06:13:44;8.07;;;5.20;;
11453;SDS011;5783;55.174;61.310;2023-02-13T06:16:14;7.23;;;5.03;;
11453;SDS011;5783;55.174;61.310;2023-02-13T06:18:43;5.97;;;5.33;;
11453;SDS011;5783;55.174;61.310;2023-02-13T06:21:12;7.57;;;5.37;;
11453;SDS011;5783;55.174;61.310;2023-02-13T06:23:41;8.27;;;5.43;;
11453;SDS011;5783;55.174;61.310;2023-02-13T06:26:11;6.40;;;5.47;;
11453;SDS011;5783;55.174;61.310;2023-02-13T06:28:40;5.90;;;5.10;;
11453;SDS011;5783;55.174;61.310;2023-02-13T06:31:09;6.20;;;5.20;;
11453;SDS011;5783;55.174;61.310;2023-02-13T06:33:38;6.67;;;4.83;;
11453;SDS011;5783;55.174;61.310;2023-02-13T06:36:07;7.80;;;5.60;;
11453;SDS011;5783;55.174;61.310;2023-02-13T06:38:36;6.43;;;4.77;;
11453;SDS011;5783;55.174;61.310;2023-02-13T06:41:05;6.90;;;4.97;;
11453;SDS011;5783;55.174;61.310;2023-02-13T06:43:35;6.77;;;5.13;;
11453;SDS011;5783;55.174;61.310;2023-02-13T06:46:04;6.77;;;4.90;;
11453;SDS011;5783;55.174;61.310;2023-02-13T06:48:34;6.73;;;5.17;;
11453;SDS011;5783;55.174;61.310;2023-02-13T06:51:03;5.27;;;4.70;;
11453;SDS011;5783;55.174;61.310;2023-02-13T06:53:32;9.33;;;5.10;;
11453;SDS011;5783;55.174;61.310;2023-02-13T06:56:02;6.03;;;4.90;;
11453;SDS011;5783;55.174;61.310;2023-02-13T06:58:32;6.90;;;5.00;;
11453;SDS011;5783;55.174;61.310;2023-02-13T07:01:03;7.03;;;5.17;;
11453;SDS011;5783;55.174;61.310;2023-02-13T07:03:32;8.93;;;5.00;;
11453;SDS011;5783;55.174;61.310;2023-02-13T07:06:01;6.73;;;4.83;;
11453;SDS011;5783;55.174;61.310;2023-02-13T07:08:31;5.87;;;4.50;;
11453;SDS011;5783;55.174;61.310;2023-02-13T07:11:00;7.10;;;4.53;;
11453;SDS011;5783;55.174;61.310;2023-02-13T07:13:29;7.60;;;4.77;;
11453;SDS011;5783;55.174;61.310;2023-02-13T07:16:00;6.67;;;4.83;;
11453;SDS011;5783;55.174;61.310;2023-02-13T07:18:29;6.63;;;4.60;;
11453;SDS011;5783;55.174;61.310;2023-02-13T07:20:58;7.63;;;4.60;;
11453;SDS011;5783;55.174;61.310;2023-02-13T07:23:27;4.93;;;4.23;;
11453;SDS011;5783;55.174;61.310;2023-02-13T07:28:45;5.77;;;4.50;;
11453;SDS011;5783;55.174;61.310;2023-02-13T07:31:15;6.63;;;4.53;;
11453;SDS011;5783;55.174;61.310;2023-02-13T07:33:47;6.93;;;4.80;;
11453;SDS011;5783;55.174;61.310;2023-02-13T07:36:34;7.07;;;4.73;;
11453;SDS011;5783;55.174;61.310;2023-02-13T07:39:03;5.83;;;4.40;;
11453;SDS011;5783;55.174;61.310;2023-02-13T07:41:32;5.70;;;3.93;;
11453;SDS011;5783;55.174;61.310;2023-02-13T07:44:01;7.23;;;4.50;;
11453;SDS011;5783;55.174;61.310;2023-02-13T07:46:31;6.23;;;4.40;;
11453;SDS011;5783;55.174;61.310;2023-02-13T07:49:00;5.20;;;4.70;;
11453;SDS011;5783;55.174;61.310;2023-02-13T07:51:29;6.10;;;4.40;;
11453;SDS011;5783;55.174;61.310;2023-02-13T07:53:58;6.90;;;4.47;;
11453;SDS011;5783;55.174;61.310;2023-02-13T07:56:29;5.63;;;4.20;;
11453;SDS011;5783;55.174;61.310;2023-02-13T07:58:59;5.27;;;4.10;;
11453;SDS011;5783;55.174;61.310;2023-02-13T08:01:28;6.47;;;4.43;;
11453;SDS011;5783;55.174;61.310;2023-02-13T08:03:57;5.70;;;4.30;;
11453;SDS011;5783;55.174;61.310;2023-02-13T08:06:26;5.57;;;4.10;;
11453;SDS011;5783;55.174;61.310;2023-02-13T08:08:55;5.00;;;4.10;;
11453;SDS011;5783;55.174;61.310;2023-02-13T08:11:44;7.67;;;4.13;;
11453;SDS011;5783;55.174;61.310;2023-02-13T08:14:32;5.47;;;4.10;;
11453;SDS011;5783;55.174;61.310;2023-02-13T08:17:02;4.27;;;3.87;;
11453;SDS011;5783;55.174;61.310;2023-02-13T08:19:31;5.37;;;4.30;;
11453;SDS011;5783;55.174;61.310;2023-02-13T08:22:00;5.83;;;4.20;;
11453;SDS011;5783;55.174;61.310;2023-02-13T08:24:30;7.17;;;4.30;;
11453;SDS011;5783;55.174;61.310;2023-02-13T08:27:00;6.20;;;4.37;;
11453;SDS011;5783;55.174;61.310;2023-02-13T08:29:29;6.53;;;4.30;;
11453;SDS011;5783;55.174;61.310;2023-02-13T08:31:59;6.10;;;4.50;;
11453;SDS011;5783;55.174;61.310;2023-02-13T08:34:29;6.63;;;4.40;;
11453;SDS011;5783;55.174;61.310;2023-02-13T08:36:58;7.83;;;4.90;;
11453;SDS011;5783;55.174;61.310;2023-02-13T08:39:28;7.57;;;4.97;;
11453;SDS011;5783;55.174;61.310;2023-02-13T08:41:57;13.93;;;6.13;;
11453;SDS011;5783;55.174;61.310;2023-02-13T08:44:26;14.37;;;7.20;;
11453;SDS011;5783;55.174;61.310;2023-02-13T08:46:56;14.70;;;8.07;;
11453;SDS011;5783;55.174;61.310;2023-02-13T08:49:27;13.17;;;8.10;;
11453;SDS011;5783;55.174;61.310;2023-02-13T08:51:56;15.80;;;8.70;;
11453;SDS011;5783;55.174;61.310;2023-02-13T08:54:26;13.07;;;8.67;;
11453;SDS011;5783;55.174;61.310;2023-02-13T08:56:56;13.07;;;8.37;;
11453;SDS011;5783;55.174;61.310;2023-02-13T08:59:25;17.07;;;10.10;;
11453;SDS011;5783;55.174;61.310;2023-02-13T09:01:54;19.47;;;11.30;;
11453;SDS011;5783;55.174;61.310;2023-02-13T09:04:24;20.03;;;11.07;;
11453;SDS011;5783;55.174;61.310;2023-02-13T09:06:54;21.40;;;10.80;;
11453;SDS011;5783;55.174;61.310;2023-02-13T09:09:23;19.80;;;10.77;;
11453;SDS011;5783;55.174;61.310;2023-02-13T09:11:53;19.30;;;9.97;;
11453;SDS011;5783;55.174;61.310;2023-02-13T09:14:23;15.70;;;9.20;;
11453;SDS011;5783;55.174;61.310;2023-02-13T09:16:52;11.80;;;7.60;;
11453;SDS011;5783;55.174;61.310;2023-02-13T09:19:21;11.40;;;6.97;;
11453;SDS011;5783;55.174;61.310;2023-02-13T09:21:50;10.90;;;7.20;;
11453;SDS011;5783;55.174;61.310;2023-02-13T09:24:20;11.57;;;6.73;;
11453;SDS011;5783;55.174;61.310;2023-02-13T09:26:49;12.40;;;6.63;;
11453;SDS011;5783;55.174;61.310;2023-02-13T09:29:18;8.27;;;6.00;;
11453;SDS011;5783;55.174;61.310;2023-02-13T09:31:47;10.67;;;6.20;;
11453;SDS011;5783;55.174;61.310;2023-02-13T09:34:17;8.00;;;5.73;;
11453;SDS011;5783;55.174;61.310;2023-02-13T09:36:50;9.87;;;5.33;;
11453;SDS011;5783;55.174;61.310;2023-02-13T09:39:36;10.57;;;5.43;;
11453;SDS011;5783;55.174;61.310;2023-02-13T09:42:10;10.93;;;5.63;;
11453;SDS011;5783;55.174;61.310;2023-02-13T09:44:57;8.20;;;5.70;;
11453;SDS011;5783;55.174;61.310;2023-02-13T09:47:30;9.50;;;5.37;;
11453;SDS011;5783;55.174;61.310;2023-02-13T09:50:20;8.03;;;5.20;;
11453;SDS011;5783;55.174;61.310;2023-02-13T09:52:53;10.80;;;5.70;;
11453;SDS011;5783;55.174;61.310;2023-02-13T10:13:07;8.03;;;5.83;;
11453;SDS011;5783;55.174;61.310;2023-02-13T10:18:47;13.27;;;6.90;;
11453;SDS011;5783;55.174;61.310;2023-02-13T10:21:36;16.93;;;7.20;;
11453;SDS011;5783;55.174;61.310;2023-02-13T10:50:38;27.60;;;10.70;;
11453;SDS011;5783;55.174;61.310;2023-02-13T10:56:36;19.23;;;9.70;;
11453;SDS011;5783;55.174;61.310;2023-02-13T10:59:12;20.10;;;10.07;;
11453;SDS011;5783;55.174;61.310;2023-02-13T11:01:58;16.87;;;9.77;;
11453;SDS011;5783;55.174;61.310;2023-02-13T11:04:29;17.83;;;10.73;;
11453;SDS011;5783;55.174;61.310;2023-02-13T11:07:00;18.87;;;11.17;;
11453;SDS011;5783;55.174;61.310;2023-02-13T11:09:32;21.00;;;9.67;;
11453;SDS011;5783;55.174;61.310;2023-02-13T11:24:02;23.13;;;10.60;;
11453;SDS011;5783;55.174;61.310;2023-02-13T11:26:32;20.37;;;10.47;;
11453;SDS011;5783;55.174;61.310;2023-02-13T11:29:03;19.03;;;10.13;;
11453;SDS011;5783;55.174;61.310;2023-02-13T11:31:35;23.23;;;10.20;;
11453;SDS011;5783;55.174;61.310;2023-02-13T11:40:27;19.50;;;10.30;;
11453;SDS011;5783;55.174;61.310;2023-02-13T11:42:37;21.33;;;10.60;;
11453;SDS011;5783;55.174;61.310;2023-02-13T11:47:58;21.63;;;10.77;;
11453;SDS011;5783;55.174;61.310;2023-02-13T12:01:45;15.30;;;8.07;;
11453;SDS011;5783;55.174;61.310;2023-02-13T12:04:16;11.13;;;7.10;;
11453;SDS011;5783;55.174;61.310;2023-02-13T12:15:36;12.83;;;7.30;;
11453;SDS011;5783;55.174;61.310;2023-02-13T13:23:22;18.83;;;10.60;;
11453;SDS011;5783;55.174;61.310;2023-02-13T13:25:56;20.50;;;10.93;;
11453;SDS011;5783;55.174;61.310;2023-02-13T13:31:14;20.10;;;10.83;;
11453;SDS011;5783;55.174;61.310;2023-02-13T13:33:45;20.77;;;11.77;;
11453;SDS011;5783;55.174;61.310;2023-02-13T13:51:05;20.37;;;11.73;;
11453;SDS011;5783;55.174;61.310;2023-02-13T13:53:37;19.53;;;11.60;;
11453;SDS011;5783;55.174;61.310;2023-02-13T13:56:48;22.20;;;12.10;;
11453;SDS011;5783;55.174;61.310;2023-02-13T13:59:17;19.90;;;11.73;;
11453;SDS011;5783;55.174;61.310;2023-02-13T14:01:48;22.57;;;12.03;;
11453;SDS011;5783;55.174;61.310;2023-02-13T14:13:12;19.93;;;11.80;;
11453;SDS011;5783;55.174;61.310;2023-02-13T14:26:31;17.73;;;11.37;;
11453;SDS011;5783;55.174;61.310;2023-02-13T14:29:21;19.70;;;11.60;;
11453;SDS011;5783;55.174;61.310;2023-02-13T14:38:16;19.90;;;13.17;;
11453;SDS011;5783;55.174;61.310;2023-02-13T14:43:32;22.27;;;13.30;;
11453;SDS011;5783;55.174;61.310;2023-02-13T14:52:03;21.77;;;13.10;;
11453;SDS011;5783;55.174;61.310;2023-02-13T14:59:58;17.47;;;10.80;;
11453;SDS011;5783;55.174;61.310;2023-02-13T15:05:21;14.23;;;9.90;;
11453;SDS011;5783;55.174;61.310;2023-02-13T15:10:45;12.57;;;8.40;;
11453;SDS011;5783;55.174;61.310;2023-02-13T15:13:17;15.33;;;8.17;;
11453;SDS011;5783;55.174;61.310;2023-02-13T15:16:07;13.93;;;7.60;;
11453;SDS011;5783;55.174;61.310;2023-02-13T15:21:27;11.10;;;7.00;;
11453;SDS011;5783;55.174;61.310;2023-02-13T15:23:58;10.17;;;7.33;;
11453;SDS011;5783;55.174;61.310;2023-02-13T15:26:28;10.60;;;7.47;;
11453;SDS011;5783;55.174;61.310;2023-02-13T15:28:58;11.00;;;7.20;;
11453;SDS011;5783;55.174;61.310;2023-02-13T15:31:30;11.13;;;7.13;;
11453;SDS011;5783;55.174;61.310;2023-02-13T15:34:02;10.00;;;6.60;;
11453;SDS011;5783;55.174;61.310;2023-02-13T15:42:09;8.87;;;6.37;;
11453;SDS011;5783;55.174;61.310;2023-02-13T15:44:39;12.27;;;6.57;;
11453;SDS011;5783;55.174;61.310;2023-02-13T15:50:01;8.93;;;6.60;;
11453;SDS011;5783;55.174;61.310;2023-02-13T15:52:30;8.47;;;6.17;;
11453;SDS011;5783;55.174;61.310;2023-02-13T15:55:02;8.87;;;6.13;;
11453;SDS011;5783;55.174;61.310;2023-02-13T15:57:32;7.40;;;5.93;;
11453;SDS011;5783;55.174;61.310;2023-02-13T16:00:01;9.67;;;5.97;;
11453;SDS011;5783;55.174;61.310;2023-02-13T16:05:24;8.87;;;6.00;;
11453;SDS011;5783;55.174;61.310;2023-02-13T16:20:02;7.60;;;5.60;;
11453;SDS011;5783;55.174;61.310;2023-02-13T16:22:51;8.87;;;5.90;;
11453;SDS011;5783;55.174;61.310;2023-02-13T16:26:20;9.77;;;5.83;;
11453;SDS011;5783;55.174;61.310;2023-02-13T16:37:24;8.30;;;5.93;;
11453;SDS011;5783;55.174;61.310;2023-02-13T16:55:13;7.63;;;5.70;;
11453;SDS011;5783;55.174;61.310;2023-02-13T16:58:04;8.30;;;5.90;;
11453;SDS011;5783;55.174;61.310;2023-02-13T17:00:34;7.90;;;5.63;;
11453;SDS011;5783;55.174;61.310;2023-02-13T17:03:22;9.03;;;6.20;;
11453;SDS011;5783;55.174;61.310;2023-02-13T17:05:51;8.87;;;5.73;;
11453;SDS011;5783;55.174;61.310;2023-02-13T17:08:21;9.10;;;6.27;;
11453;SDS011;5783;55.174;61.310;2023-02-13T17:13:42;8.50;;;5.93;;
11453;SDS011;5783;55.174;61.310;2023-02-13T17:16:31;8.77;;;5.83;;
11453;SDS011;5783;55.174;61.310;2023-02-13T17:19:03;9.93;;;6.20;;
11453;SDS011;5783;55.174;61.310;2023-02-13T17:21:32;9.03;;;5.90;;
11453;SDS011;5783;55.174;61.310;2023-02-13T17:24:02;7.83;;;5.63;;
11453;SDS011;5783;55.174;61.310;2023-02-13T17:26:33;8.40;;;5.83;;
11453;SDS011;5783;55.174;61.310;2023-02-13T17:29:03;8.73;;;5.80;;
11453;SDS011;5783;55.174;61.310;2023-02-13T17:31:32;10.10;;;6.27;;
11453;SDS011;5783;55.174;61.310;2023-02-13T17:34:01;8.23;;;5.67;;
11453;SDS011;5783;55.174;61.310;2023-02-13T17:36:30;9.23;;;5.93;;
11453;SDS011;5783;55.174;61.310;2023-02-13T17:38:59;8.17;;;5.77;;
11453;SDS011;5783;55.174;61.310;2023-02-13T17:41:28;9.73;;;6.03;;
11453;SDS011;5783;55.174;61.310;2023-02-13T17:43:57;7.20;;;5.70;;
11453;SDS011;5783;55.174;61.310;2023-02-13T17:46:26;7.90;;;6.00;;
11453;SDS011;5783;55.174;61.310;2023-02-13T17:48:56;9.77;;;6.20;;
11453;SDS011;5783;55.174;61.310;2023-02-13T17:51:25;9.60;;;6.47;;
11453;SDS011;5783;55.174;61.310;2023-02-13T17:53:54;8.07;;;6.00;;
11453;SDS011;5783;55.174;61.310;2023-02-13T17:56:23;8.83;;;6.13;;
11453;SDS011;5783;55.174;61.310;2023-02-13T17:58:52;9.20;;;6.07;;
11453;SDS011;5783;55.174;61.310;2023-02-13T18:01:21;9.27;;;6.50;;
11453;SDS011;5783;55.174;61.310;2023-02-13T18:03:50;8.93;;;6.50;;
11453;SDS011;5783;55.174;61.310;2023-02-13T18:06:19;8.77;;;6.37;;
11453;SDS011;5783;55.174;61.310;2023-02-13T18:08:49;9.17;;;6.03;;
11453;SDS011;5783;55.174;61.310;2023-02-13T18:11:18;8.40;;;6.30;;
11453;SDS011;5783;55.174;61.310;2023-02-13T18:13:47;8.87;;;6.00;;
11453;SDS011;5783;55.174;61.310;2023-02-13T18:16:16;8.00;;;5.93;;
11453;SDS011;5783;55.174;61.310;2023-02-13T18:18:47;8.77;;;6.00;;
11453;SDS011;5783;55.174;61.310;2023-02-13T18:21:16;9.07;;;6.00;;
11453;SDS011;5783;55.174;61.310;2023-02-13T18:23:50;8.53;;;5.83;;
11453;SDS011;5783;55.174;61.310;2023-02-13T18:26:37;9.17;;;6.13;;
11453;SDS011;5783;55.174;61.310;2023-02-13T18:29:06;9.13;;;6.37;;
11453;SDS011;5783;55.174;61.310;2023-02-13T18:31:35;9.43;;;6.67;;
11453;SDS011;5783;55.174;61.310;2023-02-13T18:34:04;7.33;;;5.67;;
11453;SDS011;5783;55.174;61.310;2023-02-13T18:36:33;8.33;;;5.80;;
11453;SDS011;5783;55.174;61.310;2023-02-13T18:39:03;8.43;;;5.97;;
11453;SDS011;5783;55.174;61.310;2023-02-13T18:41:33;8.77;;;5.77;;
11453;SDS011;5783;55.174;61.310;2023-02-13T18:44:03;8.47;;;5.53;;
11453;SDS011;5783;55.174;61.310;2023-02-13T18:46:32;9.13;;;5.97;;
11453;SDS011;5783;55.174;61.310;2023-02-13T18:49:01;7.80;;;5.27;;
11453;SDS011;5783;55.174;61.310;2023-02-13T18:51:31;7.63;;;5.40;;
11453;SDS011;5783;55.174;61.310;2023-02-13T18:54:00;8.77;;;5.77;;
11453;SDS011;5783;55.174;61.310;2023-02-13T18:56:29;6.90;;;5.63;;
11453;SDS011;5783;55.174;61.310;2023-02-13T18:58:58;7.20;;;5.43;;
11453;SDS011;5783;55.174;61.310;2023-02-13T19:01:27;9.23;;;5.83;;
11453;SDS011;5783;55.174;61.310;2023-02-13T19:03:56;8.70;;;5.63;;
11453;SDS011;5783;55.174;61.310;2023-02-13T19:06:25;6.57;;;5.20;;
11453;SDS011;5783;55.174;61.310;2023-02-13T19:08:55;7.30;;;5.50;;
11453;SDS011;5783;55.174;61.310;2023-02-13T19:11:24;8.67;;;5.67;;
11453;SDS011;5783;55.174;61.310;2023-02-13T19:13:56;9.63;;;5.90;;
11453;SDS011;5783;55.174;61.310;2023-02-13T19:16:27;9.13;;;5.80;;
11453;SDS011;5783;55.174;61.310;2023-02-13T19:18:59;7.47;;;5.43;;
11453;SDS011;5783;55.174;61.310;2023-02-13T19:21:30;7.93;;;5.67;;
11453;SDS011;5783;55.174;61.310;2023-02-13T19:24:02;7.50;;;5.43;;
11453;SDS011;5783;55.174;61.310;2023-02-13T19:26:33;9.03;;;6.03;;
11453;SDS011;5783;55.174;61.310;2023-02-13T19:29:03;6.47;;;5.20;;
11453;SDS011;5783;55.174;61.310;2023-02-13T19:31:32;7.40;;;5.53;;
11453;SDS011;5783;55.174;61.310;2023-02-13T19:34:02;7.67;;;5.50;;
11453;SDS011;5783;55.174;61.310;2023-02-13T19:36:31;6.67;;;5.33;;
11453;SDS011;5783;55.174;61.310;2023-02-13T19:39:01;6.87;;;5.23;;
11453;SDS011;5783;55.174;61.310;2023-02-13T19:41:33;7.10;;;5.30;;
11453;SDS011;5783;55.174;61.310;2023-02-13T19:44:04;6.70;;;5.00;;
11453;SDS011;5783;55.174;61.310;2023-02-13T19:46:33;8.63;;;5.70;;
11453;SDS011;5783;55.174;61.310;2023-02-13T19:49:03;7.93;;;5.53;;
11453;SDS011;5783;55.174;61.310;2023-02-13T19:51:34;6.57;;;4.93;;
11453;SDS011;5783;55.174;61.310;2023-02-13T19:54:05;6.20;;;5.13;;
11453;SDS011;5783;55.174;61.310;2023-02-13T19:56:36;7.37;;;5.37;;
11453;SDS011;5783;55.174;61.310;2023-02-13T19:59:07;8.03;;;5.60;;
11453;SDS011;5783;55.174;61.310;2023-02-13T20:01:38;7.10;;;4.97;;
11453;SDS011;5783;55.174;61.310;2023-02-13T20:04:08;7.63;;;5.30;;
11453;SDS011;5783;55.174;61.310;2023-02-13T20:06:38;7.87;;;5.37;;
11453;SDS011;5783;55.174;61.310;2023-02-13T20:09:08;8.53;;;5.97;;
11453;SDS011;5783;55.174;61.310;2023-02-13T20:11:41;5.70;;;4.83;;
11453;SDS011;5783;55.174;61.310;2023-02-13T20:14:11;7.07;;;4.97;;
11453;SDS011;5783;55.174;61.310;2023-02-13T20:16:42;7.53;;;5.50;;
11453;SDS011;5783;55.174;61.310;2023-02-13T20:19:11;7.37;;;5.17;;
11453;SDS011;5783;55.174;61.310;2023-02-13T20:21:41;6.57;;;5.10;;
11453;SDS011;5783;55.174;61.310;2023-02-13T20:24:11;6.10;;;4.77;;
11453;SDS011;5783;55.174;61.310;2023-02-13T20:26:40;8.63;;;5.23;;
11453;SDS011;5783;55.174;61.310;2023-02-13T20:29:10;7.87;;;4.97;;
11453;SDS011;5783;55.174;61.310;2023-02-13T20:31:39;7.43;;;4.90;;
11453;SDS011;5783;55.174;61.310;2023-02-13T20:34:09;6.17;;;4.77;;
11453;SDS011;5783;55.174;61.310;2023-02-13T20:36:38;6.67;;;5.60;;
11453;SDS011;5783;55.174;61.310;2023-02-13T20:39:07;7.67;;;4.80;;
11453;SDS011;5783;55.174;61.310;2023-02-13T20:41:37;6.50;;;4.80;;
11453;SDS011;5783;55.174;61.310;2023-02-13T20:44:08;7.70;;;5.30;;
11453;SDS011;5783;55.174;61.310;2023-02-13T20:46:39;7.13;;;5.00;;
11453;SDS011;5783;55.174;61.310;2023-02-13T20:49:09;6.37;;;4.70;;
11453;SDS011;5783;55.174;61.310;2023-02-13T20:51:40;6.67;;;4.70;;
11453;SDS011;5783;55.174;61.310;2023-02-13T20:54:10;7.27;;;5.07;;
11453;SDS011;5783;55.174;61.310;2023-02-13T20:56:39;9.20;;;5.00;;
11453;SDS011;5783;55.174;61.310;2023-02-13T20:59:10;6.83;;;5.07;;
11453;SDS011;5783;55.174;61.310;2023-02-13T21:01:39;6.80;;;4.90;;
11453;SDS011;5783;55.174;61.310;2023-02-13T21:04:10;7.13;;;4.83;;
11453;SDS011;5783;55.174;61.310;2023-02-13T21:06:41;6.80;;;5.00;;
11453;SDS011;5783;55.174;61.310;2023-02-13T21:09:10;7.23;;;4.40;;